sensor_id;sensor_type;location;lat;lon;timestamp;P1;durP1;ratioP1;P2;durP2;ratioP2
21299;SDS011;10809;49.476;11.016;2023-02-28T00:01:56;1.47;;;1.37;;
21299;SDS011;10809;49.476;11.016;2023-02-28T00:04:27;2.40;;;1.33;;
21299;SDS011;10809;49.476;11.016;2023-02-28T00:06:57;1.70;;;1.20;;
21299;SDS011;10809;49.476;11.016;2023-02-28T00:09:27;1.43;;;1.30;;
21299;SDS011;10809;49.476;11.016;2023-02-28T00:11:58;1.97;;;1.33;;
21299;SDS011;10809;49.476;11.016;2023-02-28T00:14:30;1.93;;;1.57;;
21299;SDS011;10809;49.476;11.016;2023-02-28T00:17:00;2.57;;;1.53;;
21299;SDS011;10809;49.476;11.016;2023-02-28T00:19:30;1.97;;;1.37;;
21299;SDS011;10809;49.476;11.016;2023-02-28T00:22:01;1.57;;;1.13;;
21299;SDS011;10809;49.476;11.016;2023-02-28T00:24:31;2.23;;;1.80;;
21299;SDS011;10809;49.476;11.016;2023-02-28T00:27:01;4.00;;;2.27;;
21299;SDS011;10809;49.476;11.016;2023-02-28T00:29:32;2.73;;;1.40;;
21299;SDS011;10809;49.476;11.016;2023-02-28T00:32:02;2.00;;;1.70;;
21299;SDS011;10809;49.476;11.016;2023-02-28T00:34:34;2.80;;;1.67;;
21299;SDS011;10809;49.476;11.016;2023-02-28T00:37:23;2.50;;;1.43;;
21299;SDS011;10809;49.476;11.016;2023-02-28T00:39:53;2.00;;;1.60;;
21299;SDS011;10809;49.476;11.016;2023-02-28T00:42:30;1.83;;;1.60;;
21299;SDS011;10809;49.476;11.016;2023-02-28T00:45:03;2.73;;;1.83;;
21299;SDS011;10809;49.476;11.016;2023-02-28T00:47:34;1.70;;;1.50;;
21299;SDS011;10809;49.476;11.016;2023-02-28T00:50:05;2.17;;;1.60;;
21299;SDS011;10809;49.476;11.016;2023-02-28T00:52:36;3.60;;;1.50;;
21299;SDS011;10809;49.476;11.016;2023-02-28T00:55:07;2.23;;;1.90;;
21299;SDS011;10809;49.476;11.016;2023-02-28T00:57:37;5.40;;;1.60;;
21299;SDS011;10809;49.476;11.016;2023-02-28T01:00:08;3.23;;;1.80;;
21299;SDS011;10809;49.476;11.016;2023-02-28T01:02:39;3.40;;;1.87;;
21299;SDS011;10809;49.476;11.016;2023-02-28T01:05:12;2.30;;;1.90;;
21299;SDS011;10809;49.476;11.016;2023-02-28T01:07:43;2.70;;;1.77;;
21299;SDS011;10809;49.476;11.016;2023-02-28T01:10:13;4.70;;;1.60;;
21299;SDS011;10809;49.476;11.016;2023-02-28T01:12:47;2.70;;;1.60;;
21299;SDS011;10809;49.476;11.016;2023-02-28T01:15:31;1.83;;;1.73;;
21299;SDS011;10809;49.476;11.016;2023-02-28T01:18:02;2.53;;;1.73;;
21299;SDS011;10809;49.476;11.016;2023-02-28T01:20:44;2.80;;;1.80;;
21299;SDS011;10809;49.476;11.016;2023-02-28T01:23:19;2.40;;;2.10;;
21299;SDS011;10809;49.476;11.016;2023-02-28T01:25:51;3.60;;;1.97;;
21299;SDS011;10809;49.476;11.016;2023-02-28T01:28:22;4.57;;;2.90;;
21299;SDS011;10809;49.476;11.016;2023-02-28T01:30:53;2.83;;;2.20;;
21299;SDS011;10809;49.476;11.016;2023-02-28T01:33:27;3.20;;;2.13;;
21299;SDS011;10809;49.476;11.016;2023-02-28T01:36:02;3.83;;;2.40;;
21299;SDS011;10809;49.476;11.016;2023-02-28T01:38:35;2.40;;;2.07;;
21299;SDS011;10809;49.476;11.016;2023-02-28T01:41:06;4.43;;;2.40;;
21299;SDS011;10809;49.476;11.016;2023-02-28T01:46:15;2.30;;;1.70;;
21299;SDS011;10809;49.476;11.016;2023-02-28T01:48:54;4.20;;;1.87;;
21299;SDS011;10809;49.476;11.016;2023-02-28T01:51:35;3.30;;;2.20;;
21299;SDS011;10809;49.476;11.016;2023-02-28T01:54:10;2.30;;;2.03;;
21299;SDS011;10809;49.476;11.016;2023-02-28T01:56:56;2.97;;;2.10;;
21299;SDS011;10809;49.476;11.016;2023-02-28T01:59:45;2.27;;;1.97;;
21299;SDS011;10809;49.476;11.016;2023-02-28T02:02:43;4.00;;;2.17;;
21299;SDS011;10809;49.476;11.016;2023-02-28T02:05:26;3.73;;;2.00;;
21299;SDS011;10809;49.476;11.016;2023-02-28T02:08:02;3.13;;;1.93;;
21299;SDS011;10809;49.476;11.016;2023-02-28T02:10:43;4.33;;;2.23;;
21299;SDS011;10809;49.476;11.016;2023-02-28T02:13:26;3.83;;;1.90;;
21299;SDS011;10809;49.476;11.016;2023-02-28T02:46:44;2.53;;;2.10;;
21299;SDS011;10809;49.476;11.016;2023-02-28T02:49:34;3.07;;;1.90;;
21299;SDS011;10809;49.476;11.016;2023-02-28T02:52:07;2.67;;;2.00;;
21299;SDS011;10809;49.476;11.016;2023-02-28T02:54:45;4.13;;;2.60;;
21299;SDS011;10809;49.476;11.016;2023-02-28T02:57:24;2.93;;;2.10;;
21299;SDS011;10809;49.476;11.016;2023-02-28T03:00:06;3.27;;;2.43;;
21299;SDS011;10809;49.476;11.016;2023-02-28T03:02:39;4.83;;;2.43;;
21299;SDS011;10809;49.476;11.016;2023-02-28T03:05:19;3.13;;;2.30;;
21299;SDS011;10809;49.476;11.016;2023-02-28T03:07:54;4.27;;;2.70;;
21299;SDS011;10809;49.476;11.016;2023-02-28T03:10:25;3.70;;;2.63;;
21299;SDS011;10809;49.476;11.016;2023-02-28T03:13:05;3.20;;;2.23;;
21299;SDS011;10809;49.476;11.016;2023-02-28T03:16:20;2.83;;;2.30;;
21299;SDS011;10809;49.476;11.016;2023-02-28T03:19:37;4.97;;;2.60;;
21299;SDS011;10809;49.476;11.016;2023-02-28T03:31:07;4.27;;;2.43;;
21299;SDS011;10809;49.476;11.016;2023-02-28T03:33:47;2.67;;;2.03;;
21299;SDS011;10809;49.476;11.016;2023-02-28T03:36:42;5.43;;;2.87;;
21299;SDS011;10809;49.476;11.016;2023-02-28T03:39:27;6.17;;;2.87;;
21299;SDS011;10809;49.476;11.016;2023-02-28T03:42:16;3.03;;;2.20;;
21299;SDS011;10809;49.476;11.016;2023-02-28T03:44:52;4.37;;;3.00;;
21299;SDS011;10809;49.476;11.016;2023-02-28T03:47:31;3.40;;;2.77;;
21299;SDS011;10809;49.476;11.016;2023-02-28T03:52:49;4.37;;;3.20;;
21299;SDS011;10809;49.476;11.016;2023-02-28T03:55:23;4.40;;;2.80;;
21299;SDS011;10809;49.476;11.016;2023-02-28T04:00:35;4.47;;;2.87;;
21299;SDS011;10809;49.476;11.016;2023-02-28T04:03:09;5.10;;;3.03;;
21299;SDS011;10809;49.476;11.016;2023-02-28T04:08:47;4.10;;;2.70;;
21299;SDS011;10809;49.476;11.016;2023-02-28T04:11:41;3.80;;;2.70;;
21299;SDS011;10809;49.476;11.016;2023-02-28T04:14:18;4.07;;;2.73;;
21299;SDS011;10809;49.476;11.016;2023-02-28T04:17:02;4.27;;;3.47;;
21299;SDS011;10809;49.476;11.016;2023-02-28T04:19:33;4.90;;;3.20;;
21299;SDS011;10809;49.476;11.016;2023-02-28T04:22:07;4.37;;;3.13;;
21299;SDS011;10809;49.476;11.016;2023-02-28T04:24:38;3.73;;;2.80;;
21299;SDS011;10809;49.476;11.016;2023-02-28T04:27:14;6.47;;;3.27;;
21299;SDS011;10809;49.476;11.016;2023-02-28T04:29:45;4.03;;;3.17;;
21299;SDS011;10809;49.476;11.016;2023-02-28T04:32:16;5.00;;;3.07;;
21299;SDS011;10809;49.476;11.016;2023-02-28T04:34:47;4.67;;;2.93;;
21299;SDS011;10809;49.476;11.016;2023-02-28T04:37:18;3.97;;;2.90;;
21299;SDS011;10809;49.476;11.016;2023-02-28T04:39:51;4.30;;;3.10;;
21299;SDS011;10809;49.476;11.016;2023-02-28T04:42:21;5.70;;;3.33;;
21299;SDS011;10809;49.476;11.016;2023-02-28T04:44:52;4.87;;;2.90;;
21299;SDS011;10809;49.476;11.016;2023-02-28T04:47:23;5.07;;;3.20;;
21299;SDS011;10809;49.476;11.016;2023-02-28T04:49:59;3.57;;;3.03;;
21299;SDS011;10809;49.476;11.016;2023-02-28T04:52:30;6.33;;;3.03;;
21299;SDS011;10809;49.476;11.016;2023-02-28T04:55:01;4.37;;;2.80;;
21299;SDS011;10809;49.476;11.016;2023-02-28T04:57:31;4.80;;;2.97;;
21299;SDS011;10809;49.476;11.016;2023-02-28T05:00:05;6.30;;;3.50;;
21299;SDS011;10809;49.476;11.016;2023-02-28T05:02:41;3.50;;;2.60;;
21299;SDS011;10809;49.476;11.016;2023-02-28T05:05:18;4.17;;;2.83;;
21299;SDS011;10809;49.476;11.016;2023-02-28T05:07:49;6.43;;;2.93;;
21299;SDS011;10809;49.476;11.016;2023-02-28T05:10:19;4.13;;;2.93;;
21299;SDS011;10809;49.476;11.016;2023-02-28T05:12:50;4.83;;;3.43;;
21299;SDS011;10809;49.476;11.016;2023-02-28T05:15:21;5.27;;;3.10;;
21299;SDS011;10809;49.476;11.016;2023-02-28T05:17:57;3.73;;;3.03;;
21299;SDS011;10809;49.476;11.016;2023-02-28T05:20:28;5.67;;;3.57;;
21299;SDS011;10809;49.476;11.016;2023-02-28T05:22:59;5.07;;;3.13;;
21299;SDS011;10809;49.476;11.016;2023-02-28T05:25:34;7.80;;;3.77;;
21299;SDS011;10809;49.476;11.016;2023-02-28T05:28:05;5.37;;;3.37;;
21299;SDS011;10809;49.476;11.016;2023-02-28T05:30:36;7.17;;;3.27;;
21299;SDS011;10809;49.476;11.016;2023-02-28T05:33:09;4.27;;;3.07;;
21299;SDS011;10809;49.476;11.016;2023-02-28T05:35:44;6.13;;;3.60;;
21299;SDS011;10809;49.476;11.016;2023-02-28T05:38:20;4.77;;;3.10;;
21299;SDS011;10809;49.476;11.016;2023-02-28T05:40:50;6.03;;;3.43;;
21299;SDS011;10809;49.476;11.016;2023-02-28T05:43:22;4.20;;;2.83;;
21299;SDS011;10809;49.476;11.016;2023-02-28T05:45:53;4.93;;;3.43;;
21299;SDS011;10809;49.476;11.016;2023-02-28T05:48:29;5.60;;;3.63;;
21299;SDS011;10809;49.476;11.016;2023-02-28T05:50:59;4.77;;;3.20;;
21299;SDS011;10809;49.476;11.016;2023-02-28T05:53:30;5.53;;;3.10;;
21299;SDS011;10809;49.476;11.016;2023-02-28T05:56:01;4.70;;;3.30;;
21299;SDS011;10809;49.476;11.016;2023-02-28T05:58:32;6.10;;;4.10;;
21299;SDS011;10809;49.476;11.016;2023-02-28T06:01:23;6.87;;;3.20;;
21299;SDS011;10809;49.476;11.016;2023-02-28T06:04:06;4.87;;;3.30;;
21299;SDS011;10809;49.476;11.016;2023-02-28T06:06:41;6.73;;;3.80;;
21299;SDS011;10809;49.476;11.016;2023-02-28T06:09:15;5.27;;;3.60;;
21299;SDS011;10809;49.476;11.016;2023-02-28T06:11:46;5.40;;;2.93;;
21299;SDS011;10809;49.476;11.016;2023-02-28T06:14:17;4.93;;;3.27;;
21299;SDS011;10809;49.476;11.016;2023-02-28T06:16:49;4.27;;;3.00;;
21299;SDS011;10809;49.476;11.016;2023-02-28T06:19:20;6.03;;;3.63;;
21299;SDS011;10809;49.476;11.016;2023-02-28T06:21:52;5.80;;;3.30;;
21299;SDS011;10809;49.476;11.016;2023-02-28T06:24:24;6.43;;;3.10;;
21299;SDS011;10809;49.476;11.016;2023-02-28T06:26:58;7.50;;;3.80;;
21299;SDS011;10809;49.476;11.016;2023-02-28T06:29:38;5.20;;;3.40;;
21299;SDS011;10809;49.476;11.016;2023-02-28T06:32:15;5.53;;;3.50;;
21299;SDS011;10809;49.476;11.016;2023-02-28T06:34:46;5.53;;;3.70;;
21299;SDS011;10809;49.476;11.016;2023-02-28T06:37:17;5.90;;;4.20;;
21299;SDS011;10809;49.476;11.016;2023-02-28T06:39:57;6.00;;;3.57;;
21299;SDS011;10809;49.476;11.016;2023-02-28T06:42:31;4.03;;;3.20;;
21299;SDS011;10809;49.476;11.016;2023-02-28T06:45:09;6.13;;;3.33;;
21299;SDS011;10809;49.476;11.016;2023-02-28T06:47:43;5.70;;;3.73;;
21299;SDS011;10809;49.476;11.016;2023-02-28T06:50:20;7.43;;;3.73;;
21299;SDS011;10809;49.476;11.016;2023-02-28T06:52:51;5.27;;;3.87;;
21299;SDS011;10809;49.476;11.016;2023-02-28T06:55:30;5.23;;;3.67;;
21299;SDS011;10809;49.476;11.016;2023-02-28T06:58:04;5.93;;;3.73;;
21299;SDS011;10809;49.476;11.016;2023-02-28T07:00:44;6.20;;;3.90;;
21299;SDS011;10809;49.476;11.016;2023-02-28T07:03:16;4.57;;;3.53;;
21299;SDS011;10809;49.476;11.016;2023-02-28T07:06:00;8.73;;;4.27;;
21299;SDS011;10809;49.476;11.016;2023-02-28T07:08:31;6.67;;;3.87;;
21299;SDS011;10809;49.476;11.016;2023-02-28T07:11:02;11.00;;;4.63;;
21299;SDS011;10809;49.476;11.016;2023-02-28T07:13:36;5.47;;;3.90;;
21299;SDS011;10809;49.476;11.016;2023-02-28T07:16:09;7.37;;;4.23;;
21299;SDS011;10809;49.476;11.016;2023-02-28T07:18:41;6.47;;;4.40;;
21299;SDS011;10809;49.476;11.016;2023-02-28T07:21:11;9.33;;;4.23;;
21299;SDS011;10809;49.476;11.016;2023-02-28T07:23:45;5.57;;;4.00;;
21299;SDS011;10809;49.476;11.016;2023-02-28T07:26:22;5.60;;;4.17;;
21299;SDS011;10809;49.476;11.016;2023-02-28T07:28:54;9.37;;;4.87;;
21299;SDS011;10809;49.476;11.016;2023-02-28T07:31:24;7.07;;;4.53;;
21299;SDS011;10809;49.476;11.016;2023-02-28T07:33:55;7.40;;;4.47;;
21299;SDS011;10809;49.476;11.016;2023-02-28T07:36:26;5.53;;;4.20;;
21299;SDS011;10809;49.476;11.016;2023-02-28T07:38:57;13.00;;;4.57;;
21299;SDS011;10809;49.476;11.016;2023-02-28T07:41:28;7.17;;;4.13;;
21299;SDS011;10809;49.476;11.016;2023-02-28T07:43:59;7.73;;;5.07;;
21299;SDS011;10809;49.476;11.016;2023-02-28T07:46:30;8.33;;;4.60;;
21299;SDS011;10809;49.476;11.016;2023-02-28T07:49:05;7.37;;;4.57;;
21299;SDS011;10809;49.476;11.016;2023-02-28T07:51:39;10.50;;;4.17;;
21299;SDS011;10809;49.476;11.016;2023-02-28T07:54:09;6.10;;;4.40;;
21299;SDS011;10809;49.476;11.016;2023-02-28T07:56:40;7.43;;;4.43;;
21299;SDS011;10809;49.476;11.016;2023-02-28T07:59:11;5.17;;;4.07;;
21299;SDS011;10809;49.476;11.016;2023-02-28T08:01:41;7.13;;;4.47;;
21299;SDS011;10809;49.476;11.016;2023-02-28T08:04:17;6.23;;;4.43;;
21299;SDS011;10809;49.476;11.016;2023-02-28T08:06:48;6.73;;;4.10;;
21299;SDS011;10809;49.476;11.016;2023-02-28T08:09:22;6.23;;;4.03;;
21299;SDS011;10809;49.476;11.016;2023-02-28T08:11:56;5.27;;;3.87;;
21299;SDS011;10809;49.476;11.016;2023-02-28T08:14:33;5.63;;;3.97;;
21299;SDS011;10809;49.476;11.016;2023-02-28T08:17:04;6.57;;;4.20;;
21299;SDS011;10809;49.476;11.016;2023-02-28T08:19:35;4.67;;;4.00;;
21299;SDS011;10809;49.476;11.016;2023-02-28T08:22:05;7.53;;;4.63;;
21299;SDS011;10809;49.476;11.016;2023-02-28T08:24:40;6.30;;;4.27;;
21299;SDS011;10809;49.476;11.016;2023-02-28T08:27:12;6.90;;;3.87;;
21299;SDS011;10809;49.476;11.016;2023-02-28T08:29:46;4.90;;;3.70;;
21299;SDS011;10809;49.476;11.016;2023-02-28T08:32:17;8.97;;;4.53;;
21299;SDS011;10809;49.476;11.016;2023-02-28T08:34:47;6.93;;;4.20;;
21299;SDS011;10809;49.476;11.016;2023-02-28T08:37:17;5.00;;;3.80;;
21299;SDS011;10809;49.476;11.016;2023-02-28T08:40:00;6.90;;;4.57;;
21299;SDS011;10809;49.476;11.016;2023-02-28T08:42:33;5.83;;;4.30;;
21299;SDS011;10809;49.476;11.016;2023-02-28T08:45:04;6.23;;;4.13;;
21299;SDS011;10809;49.476;11.016;2023-02-28T08:47:35;6.00;;;4.20;;
21299;SDS011;10809;49.476;11.016;2023-02-28T08:50:05;4.57;;;3.73;;
21299;SDS011;10809;49.476;11.016;2023-02-28T08:52:37;5.33;;;4.00;;
21299;SDS011;10809;49.476;11.016;2023-02-28T08:55:08;6.60;;;4.37;;
21299;SDS011;10809;49.476;11.016;2023-02-28T08:57:42;10.33;;;6.33;;
21299;SDS011;10809;49.476;11.016;2023-02-28T09:00:15;6.23;;;4.63;;
21299;SDS011;10809;49.476;11.016;2023-02-28T09:02:46;6.87;;;4.50;;
21299;SDS011;10809;49.476;11.016;2023-02-28T09:05:16;4.73;;;3.70;;
21299;SDS011;10809;49.476;11.016;2023-02-28T09:07:50;7.53;;;4.43;;
21299;SDS011;10809;49.476;11.016;2023-02-28T09:10:20;6.33;;;4.10;;
21299;SDS011;10809;49.476;11.016;2023-02-28T09:12:55;6.37;;;4.53;;
21299;SDS011;10809;49.476;11.016;2023-02-28T09:15:25;5.57;;;5.00;;
21299;SDS011;10809;49.476;11.016;2023-02-28T09:18:01;7.37;;;4.93;;
21299;SDS011;10809;49.476;11.016;2023-02-28T09:20:32;6.33;;;4.70;;
21299;SDS011;10809;49.476;11.016;2023-02-28T09:23:03;6.33;;;4.20;;
21299;SDS011;10809;49.476;11.016;2023-02-28T09:25:33;7.47;;;4.63;;
21299;SDS011;10809;49.476;11.016;2023-02-28T09:28:04;5.47;;;4.40;;
21299;SDS011;10809;49.476;11.016;2023-02-28T09:30:34;12.70;;;4.90;;
21299;SDS011;10809;49.476;11.016;2023-02-28T09:33:08;7.10;;;4.40;;
21299;SDS011;10809;49.476;11.016;2023-02-28T09:35:38;8.13;;;4.60;;
21299;SDS011;10809;49.476;11.016;2023-02-28T09:38:09;7.73;;;4.50;;
21299;SDS011;10809;49.476;11.016;2023-02-28T09:40:46;6.63;;;4.07;;
21299;SDS011;10809;49.476;11.016;2023-02-28T09:43:20;5.30;;;4.27;;
21299;SDS011;10809;49.476;11.016;2023-02-28T09:45:59;8.20;;;4.20;;
21299;SDS011;10809;49.476;11.016;2023-02-28T09:48:39;5.90;;;4.40;;
21299;SDS011;10809;49.476;11.016;2023-02-28T09:54:01;7.33;;;4.77;;
21299;SDS011;10809;49.476;11.016;2023-02-28T09:56:41;7.30;;;4.13;;
21299;SDS011;10809;49.476;11.016;2023-02-28T10:05:38;5.80;;;4.03;;
21299;SDS011;10809;49.476;11.016;2023-02-28T10:08:18;5.00;;;3.80;;
21299;SDS011;10809;49.476;11.016;2023-02-28T10:11:14;5.90;;;3.93;;
21299;SDS011;10809;49.476;11.016;2023-02-28T10:13:52;8.43;;;4.20;;
21299;SDS011;10809;49.476;11.016;2023-02-28T10:16:35;6.20;;;4.00;;
21299;SDS011;10809;49.476;11.016;2023-02-28T10:19:33;6.93;;;3.57;;
21299;SDS011;10809;49.476;11.016;2023-02-28T10:22:20;4.23;;;3.47;;
21299;SDS011;10809;49.476;11.016;2023-02-28T10:24:57;5.80;;;4.03;;
21299;SDS011;10809;49.476;11.016;2023-02-28T10:27:35;6.50;;;3.60;;
21299;SDS011;10809;49.476;11.016;2023-02-28T10:30:09;7.17;;;4.47;;
21299;SDS011;10809;49.476;11.016;2023-02-28T10:32:50;5.83;;;3.77;;
21299;SDS011;10809;49.476;11.016;2023-02-28T10:35:26;7.13;;;4.60;;
21299;SDS011;10809;49.476;11.016;2023-02-28T10:38:00;7.27;;;4.37;;
21299;SDS011;10809;49.476;11.016;2023-02-28T10:40:50;6.30;;;3.67;;
21299;SDS011;10809;49.476;11.016;2023-02-28T10:43:22;7.10;;;4.17;;
21299;SDS011;10809;49.476;11.016;2023-02-28T10:48:39;4.60;;;3.53;;
21299;SDS011;10809;49.476;11.016;2023-02-28T10:54:22;5.60;;;4.33;;
21299;SDS011;10809;49.476;11.016;2023-02-28T10:57:18;5.23;;;3.97;;
21299;SDS011;10809;49.476;11.016;2023-02-28T11:00:05;6.53;;;3.77;;
21299;SDS011;10809;49.476;11.016;2023-02-28T11:02:43;4.47;;;3.73;;
21299;SDS011;10809;49.476;11.016;2023-02-28T11:05:30;4.83;;;3.80;;
21299;SDS011;10809;49.476;11.016;2023-02-28T11:08:05;4.80;;;3.83;;
21299;SDS011;10809;49.476;11.016;2023-02-28T11:13:51;5.47;;;3.53;;
21299;SDS011;10809;49.476;11.016;2023-02-28T11:16:37;5.07;;;3.60;;
21299;SDS011;10809;49.476;11.016;2023-02-28T11:19:16;5.03;;;3.57;;
21299;SDS011;10809;49.476;11.016;2023-02-28T11:22:08;5.00;;;3.77;;
21299;SDS011;10809;49.476;11.016;2023-02-28T11:24:53;3.50;;;2.80;;
21299;SDS011;10809;49.476;11.016;2023-02-28T11:30:03;5.40;;;3.23;;
21299;SDS011;10809;49.476;11.016;2023-02-28T11:32:47;6.50;;;3.93;;
21299;SDS011;10809;49.476;11.016;2023-02-28T11:35:22;4.67;;;3.57;;
21299;SDS011;10809;49.476;11.016;2023-02-28T11:38:01;4.57;;;3.40;;
21299;SDS011;10809;49.476;11.016;2023-02-28T11:43:29;6.33;;;3.67;;
21299;SDS011;10809;49.476;11.016;2023-02-28T11:46:10;6.17;;;3.37;;
21299;SDS011;10809;49.476;11.016;2023-02-28T11:48:53;4.40;;;3.27;;
21299;SDS011;10809;49.476;11.016;2023-02-28T11:51:32;7.27;;;4.17;;
21299;SDS011;10809;49.476;11.016;2023-02-28T11:54:22;5.87;;;4.03;;
21299;SDS011;10809;49.476;11.016;2023-02-28T11:57:08;5.20;;;4.00;;
21299;SDS011;10809;49.476;11.016;2023-02-28T11:59:56;4.27;;;3.10;;
21299;SDS011;10809;49.476;11.016;2023-02-28T12:02:52;7.80;;;4.50;;
21299;SDS011;10809;49.476;11.016;2023-02-28T12:05:46;8.27;;;4.03;;
21299;SDS011;10809;49.476;11.016;2023-02-28T12:22:32;6.10;;;3.70;;
21299;SDS011;10809;49.476;11.016;2023-02-28T12:27:43;6.03;;;3.50;;
21299;SDS011;10809;49.476;11.016;2023-02-28T12:30:26;4.70;;;3.60;;
21299;SDS011;10809;49.476;11.016;2023-02-28T12:33:06;4.63;;;3.53;;
21299;SDS011;10809;49.476;11.016;2023-02-28T12:35:56;6.23;;;3.53;;
21299;SDS011;10809;49.476;11.016;2023-02-28T12:38:36;6.07;;;3.63;;
21299;SDS011;10809;49.476;11.016;2023-02-28T12:41:16;4.40;;;3.47;;
21299;SDS011;10809;49.476;11.016;2023-02-28T12:47:00;4.90;;;3.60;;
21299;SDS011;10809;49.476;11.016;2023-02-28T12:49:39;6.13;;;3.70;;
21299;SDS011;10809;49.476;11.016;2023-02-28T12:52:13;5.07;;;3.53;;
21299;SDS011;10809;49.476;11.016;2023-02-28T12:55:00;4.13;;;3.07;;
21299;SDS011;10809;49.476;11.016;2023-02-28T13:01:08;6.27;;;3.83;;
21299;SDS011;10809;49.476;11.016;2023-02-28T13:06:57;4.57;;;3.60;;
21299;SDS011;10809;49.476;11.016;2023-02-28T13:09:38;4.43;;;3.30;;
21299;SDS011;10809;49.476;11.016;2023-02-28T13:12:15;4.10;;;3.70;;
21299;SDS011;10809;49.476;11.016;2023-02-28T13:14:46;6.23;;;4.23;;
21299;SDS011;10809;49.476;11.016;2023-02-28T13:17:20;5.37;;;3.63;;
21299;SDS011;10809;49.476;11.016;2023-02-28T13:24:56;5.20;;;4.07;;
21299;SDS011;10809;49.476;11.016;2023-02-28T13:27:37;6.83;;;3.93;;
21299;SDS011;10809;49.476;11.016;2023-02-28T13:33:28;6.93;;;4.07;;
21299;SDS011;10809;49.476;11.016;2023-02-28T13:36:08;6.97;;;4.20;;
21299;SDS011;10809;49.476;11.016;2023-02-28T13:38:47;11.17;;;5.60;;
21299;SDS011;10809;49.476;11.016;2023-02-28T13:54:56;7.43;;;3.97;;
21299;SDS011;10809;49.476;11.016;2023-02-28T14:18:24;4.73;;;3.90;;
21299;SDS011;10809;49.476;11.016;2023-02-28T14:21:14;8.73;;;4.37;;
21299;SDS011;10809;49.476;11.016;2023-02-28T14:37:55;6.67;;;4.07;;
21299;SDS011;10809;49.476;11.016;2023-02-28T14:40:30;6.43;;;4.33;;
21299;SDS011;10809;49.476;11.016;2023-02-28T14:43:04;4.43;;;3.40;;
21299;SDS011;10809;49.476;11.016;2023-02-28T14:45:37;5.97;;;4.37;;
21299;SDS011;10809;49.476;11.016;2023-02-28T14:48:09;6.37;;;4.10;;
21299;SDS011;10809;49.476;11.016;2023-02-28T14:50:48;8.53;;;4.40;;
21299;SDS011;10809;49.476;11.016;2023-02-28T14:53:20;5.87;;;4.43;;
21299;SDS011;10809;49.476;11.016;2023-02-28T14:55:55;6.27;;;3.93;;
21299;SDS011;10809;49.476;11.016;2023-02-28T14:58:27;7.33;;;4.70;;
21299;SDS011;10809;49.476;11.016;2023-02-28T15:01:02;4.93;;;3.63;;
21299;SDS011;10809;49.476;11.016;2023-02-28T15:03:34;5.57;;;4.20;;
21299;SDS011;10809;49.476;11.016;2023-02-28T15:06:14;4.70;;;3.83;;
21299;SDS011;10809;49.476;11.016;2023-02-28T15:08:46;6.40;;;4.43;;
21299;SDS011;10809;49.476;11.016;2023-02-28T15:11:17;6.23;;;4.67;;
21299;SDS011;10809;49.476;11.016;2023-02-28T15:13:52;9.53;;;4.63;;
21299;SDS011;10809;49.476;11.016;2023-02-28T15:16:40;5.40;;;3.73;;
21299;SDS011;10809;49.476;11.016;2023-02-28T15:19:27;5.03;;;3.90;;
21299;SDS011;10809;49.476;11.016;2023-02-28T15:22:14;4.37;;;3.50;;
21299;SDS011;10809;49.476;11.016;2023-02-28T15:24:51;5.77;;;4.43;;
21299;SDS011;10809;49.476;11.016;2023-02-28T15:27:25;4.80;;;3.90;;
21299;SDS011;10809;49.476;11.016;2023-02-28T15:30:25;8.13;;;4.53;;
21299;SDS011;10809;49.476;11.016;2023-02-28T15:35:44;7.07;;;5.10;;
21299;SDS011;10809;49.476;11.016;2023-02-28T15:41:28;7.60;;;4.87;;
21299;SDS011;10809;49.476;11.016;2023-02-28T15:47:01;5.97;;;4.10;;
21299;SDS011;10809;49.476;11.016;2023-02-28T15:49:56;6.67;;;4.43;;
21299;SDS011;10809;49.476;11.016;2023-02-28T15:52:44;6.60;;;4.50;;
21299;SDS011;10809;49.476;11.016;2023-02-28T15:55:20;7.53;;;4.77;;
21299;SDS011;10809;49.476;11.016;2023-02-28T15:57:53;7.50;;;4.47;;
21299;SDS011;10809;49.476;11.016;2023-02-28T16:00:27;7.17;;;4.73;;
21299;SDS011;10809;49.476;11.016;2023-02-28T16:02:58;7.63;;;5.23;;
21299;SDS011;10809;49.476;11.016;2023-02-28T16:05:32;8.30;;;5.33;;
21299;SDS011;10809;49.476;11.016;2023-02-28T16:08:15;8.27;;;5.43;;
21299;SDS011;10809;49.476;11.016;2023-02-28T16:10:52;7.03;;;4.70;;
21299;SDS011;10809;49.476;11.016;2023-02-28T16:13:29;5.57;;;4.40;;
21299;SDS011;10809;49.476;11.016;2023-02-28T16:16:00;7.07;;;4.93;;
21299;SDS011;10809;49.476;11.016;2023-02-28T16:18:32;6.13;;;4.53;;
21299;SDS011;10809;49.476;11.016;2023-02-28T16:21:02;6.47;;;5.03;;
21299;SDS011;10809;49.476;11.016;2023-02-28T16:23:33;7.90;;;5.13;;
21299;SDS011;10809;49.476;11.016;2023-02-28T16:26:04;6.90;;;4.50;;
21299;SDS011;10809;49.476;11.016;2023-02-28T16:28:36;7.03;;;4.97;;
21299;SDS011;10809;49.476;11.016;2023-02-28T16:31:09;8.63;;;5.33;;
21299;SDS011;10809;49.476;11.016;2023-02-28T16:33:46;8.67;;;5.40;;
21299;SDS011;10809;49.476;11.016;2023-02-28T16:36:21;9.87;;;5.17;;
21299;SDS011;10809;49.476;11.016;2023-02-28T16:39:04;7.43;;;5.10;;
21299;SDS011;10809;49.476;11.016;2023-02-28T16:41:35;9.13;;;5.10;;
21299;SDS011;10809;49.476;11.016;2023-02-28T16:44:05;8.57;;;5.63;;
21299;SDS011;10809;49.476;11.016;2023-02-28T16:46:51;6.83;;;5.13;;
21299;SDS011;10809;49.476;11.016;2023-02-28T16:49:22;9.33;;;6.13;;
21299;SDS011;10809;49.476;11.016;2023-02-28T16:51:52;6.20;;;4.87;;
21299;SDS011;10809;49.476;11.016;2023-02-28T16:54:23;8.53;;;5.20;;
21299;SDS011;10809;49.476;11.016;2023-02-28T16:56:53;9.17;;;5.37;;
21299;SDS011;10809;49.476;11.016;2023-02-28T16:59:24;9.63;;;5.53;;
21299;SDS011;10809;49.476;11.016;2023-02-28T17:01:57;8.83;;;5.20;;
21299;SDS011;10809;49.476;11.016;2023-02-28T17:04:28;8.73;;;5.87;;
21299;SDS011;10809;49.476;11.016;2023-02-28T17:06:59;7.30;;;4.90;;
21299;SDS011;10809;49.476;11.016;2023-02-28T17:09:30;9.23;;;5.40;;
21299;SDS011;10809;49.476;11.016;2023-02-28T17:12:00;7.80;;;4.80;;
21299;SDS011;10809;49.476;11.016;2023-02-28T17:14:33;6.30;;;4.67;;
21299;SDS011;10809;49.476;11.016;2023-02-28T17:17:04;8.03;;;5.83;;
21299;SDS011;10809;49.476;11.016;2023-02-28T17:19:38;10.53;;;6.17;;
21299;SDS011;10809;49.476;11.016;2023-02-28T17:22:11;11.67;;;6.17;;
21299;SDS011;10809;49.476;11.016;2023-02-28T17:24:41;7.43;;;5.53;;
21299;SDS011;10809;49.476;11.016;2023-02-28T17:27:12;10.63;;;6.20;;
21299;SDS011;10809;49.476;11.016;2023-02-28T17:29:49;8.70;;;6.07;;
21299;SDS011;10809;49.476;11.016;2023-02-28T17:32:19;12.70;;;7.00;;
21299;SDS011;10809;49.476;11.016;2023-02-28T17:34:49;14.80;;;7.37;;
21299;SDS011;10809;49.476;11.016;2023-02-28T17:37:20;10.43;;;6.63;;
21299;SDS011;10809;49.476;11.016;2023-02-28T17:39:50;10.03;;;6.50;;
21299;SDS011;10809;49.476;11.016;2023-02-28T17:42:21;9.63;;;6.80;;
21299;SDS011;10809;49.476;11.016;2023-02-28T17:44:51;11.23;;;6.63;;
21299;SDS011;10809;49.476;11.016;2023-02-28T17:47:21;10.10;;;6.03;;
21299;SDS011;10809;49.476;11.016;2023-02-28T17:49:59;8.73;;;6.13;;
21299;SDS011;10809;49.476;11.016;2023-02-28T17:52:30;11.23;;;6.10;;
21299;SDS011;10809;49.476;11.016;2023-02-28T17:55:00;8.87;;;5.57;;
21299;SDS011;10809;49.476;11.016;2023-02-28T17:57:31;10.90;;;6.77;;
21299;SDS011;10809;49.476;11.016;2023-02-28T18:00:01;11.03;;;6.07;;
21299;SDS011;10809;49.476;11.016;2023-02-28T18:02:50;9.07;;;6.47;;
21299;SDS011;10809;49.476;11.016;2023-02-28T18:05:22;11.87;;;7.13;;
21299;SDS011;10809;49.476;11.016;2023-02-28T18:07:52;10.33;;;6.10;;
21299;SDS011;10809;49.476;11.016;2023-02-28T18:10:25;10.87;;;5.57;;